createdAt,value
2019-05-10T00:01:12.270Z,10.44
2019-05-10T00:04:01.706Z,10.46
2019-05-10T00:06:50.989Z,10.46
2019-05-10T00:09:21.771Z,10.46
2019-05-10T00:12:03.922Z,10.40
2019-05-10T00:14:47.935Z,10.33
2019-05-10T00:17:21.234Z,10.32
2019-05-10T00:19:52.966Z,10.27
2019-05-10T00:22:24.998Z,10.27
2019-05-10T00:25:03.997Z,10.26
2019-05-10T00:27:29.767Z,10.23
2019-05-10T00:30:01.156Z,10.22
2019-05-10T00:32:33.946Z,10.23
2019-05-10T00:35:06.051Z,10.26
2019-05-10T00:37:37.508Z,10.31
2019-05-10T00:40:09.439Z,10.33
2019-05-10T00:42:40.721Z,10.37
2019-05-10T00:45:12.426Z,10.36
2019-05-10T00:47:43.928Z,10.32
2019-05-10T00:50:15.747Z,10.33
2019-05-10T00:52:47.081Z,10.26
2019-05-10T00:55:19.512Z,10.25
2019-05-10T00:57:51.153Z,10.27
2019-05-10T01:00:22.666Z,10.23
2019-05-10T01:02:54.437Z,10.21
2019-05-10T01:05:25.817Z,10.20
2019-05-10T01:07:57.258Z,10.24
2019-05-10T01:10:29.069Z,10.20
2019-05-10T01:13:00.426Z,10.18
2019-05-10T01:15:31.886Z,10.17
2019-05-10T01:18:03.252Z,10.12
2019-05-10T01:20:34.775Z,10.09
2019-05-10T01:23:06.227Z,10.04
2019-05-10T01:25:37.975Z,10.11
2019-05-10T01:28:09.381Z,10.11
2019-05-10T01:30:41.037Z,10.11
2019-05-10T01:33:12.427Z,10.14
2019-05-10T01:35:44.947Z,10.16
2019-05-10T01:38:16.389Z,10.14
2019-05-10T01:40:48.100Z,10.14
2019-05-10T01:43:19.991Z,10.17
2019-05-10T01:45:51.490Z,10.14
2019-05-10T01:48:22.831Z,10.11
2019-05-10T01:50:54.278Z,10.13
2019-05-10T01:53:26.104Z,10.17
2019-05-10T01:55:57.558Z,10.12
2019-05-10T01:58:28.994Z,10.10
2019-05-10T02:01:00.394Z,10.12
2019-05-10T02:03:31.842Z,10.13
2019-05-10T02:06:03.604Z,10.08
2019-05-10T02:08:35.012Z,10.06
2019-05-10T02:11:06.575Z,10.03
2019-05-10T02:13:38.733Z,9.99
2019-05-10T02:16:10.088Z,9.94
2019-05-10T02:18:41.638Z,9.86
2019-05-10T02:21:13.057Z,9.84
2019-05-10T02:23:44.596Z,9.83
2019-05-10T02:26:15.941Z,9.83
2019-05-10T02:28:47.204Z,9.85
2019-05-10T02:31:21.605Z,9.85
2019-05-10T02:33:51.637Z,9.84
2019-05-10T02:36:23.318Z,9.88
2019-05-10T02:38:54.738Z,9.85
2019-05-10T02:41:26.110Z,9.82
2019-05-10T02:43:57.452Z,9.88
2019-05-10T02:46:28.881Z,9.87
2019-05-10T02:49:00.160Z,9.89
2019-05-10T02:51:31.542Z,9.84
2019-05-10T02:54:03.230Z,9.81
2019-05-10T02:56:36.566Z,9.80
2019-05-10T02:59:10.026Z,9.73
2019-05-10T03:01:46.566Z,9.66
2019-05-10T03:04:18.064Z,9.65
2019-05-10T03:06:54.121Z,9.59
2019-05-10T03:09:30.334Z,9.53
2019-05-10T03:12:26.056Z,9.48
2019-05-10T03:14:59.952Z,9.47
2019-05-10T03:17:31.489Z,9.48
2019-05-10T03:20:03.561Z,9.43
2019-05-10T03:22:43.554Z,9.36
2019-05-10T03:25:15.973Z,9.36
2019-05-10T03:27:47.630Z,9.30
2019-05-10T03:30:19.110Z,9.22
2019-05-10T03:32:51.191Z,9.20
2019-05-10T03:35:22.495Z,9.13
2019-05-10T03:37:54.316Z,9.10
2019-05-10T03:40:27.080Z,9.06
2019-05-10T03:42:58.802Z,9.02
2019-05-10T03:45:30.184Z,9.00
2019-05-10T03:48:01.836Z,8.97
2019-05-10T03:50:33.428Z,8.97
2019-05-10T03:53:05.215Z,8.93
2019-05-10T03:55:36.524Z,8.97
2019-05-10T03:58:07.986Z,8.98
2019-05-10T04:00:39.253Z,9.00
2019-05-10T04:03:10.614Z,9.03
2019-05-10T04:05:42.097Z,9.06
2019-05-10T04:08:13.792Z,9.11
2019-05-10T04:10:45.239Z,9.09
2019-05-10T04:13:16.672Z,9.03
2019-05-10T04:15:48.064Z,8.99
2019-05-10T04:18:19.278Z,9.04
2019-05-10T04:20:51.573Z,9.12
2019-05-10T04:23:22.998Z,9.12
2019-05-10T04:25:54.431Z,9.11
2019-05-10T04:28:25.906Z,9.05
2019-05-10T04:30:57.353Z,9.04
2019-05-10T04:33:28.629Z,8.96
2019-05-10T04:36:00.221Z,8.92
2019-05-10T04:38:31.534Z,8.94
2019-05-10T04:41:03.245Z,8.94
2019-05-10T04:43:34.849Z,8.92
2019-05-10T04:46:06.591Z,8.94
2019-05-10T04:48:37.831Z,9.07
2019-05-10T04:51:09.172Z,9.16
2019-05-10T04:53:40.724Z,9.28
2019-05-10T04:56:12.010Z,9.46
2019-05-10T04:58:43.286Z,9.64
2019-05-10T05:01:15.088Z,9.59
2019-05-10T05:03:46.533Z,9.56
2019-05-10T05:06:17.870Z,9.57
2019-05-10T05:08:49.573Z,9.62
2019-05-10T05:11:20.971Z,9.70
2019-05-10T05:13:52.316Z,9.85
2019-05-10T05:16:23.879Z,9.94
2019-05-10T05:18:55.286Z,10.18
2019-05-10T05:21:27.062Z,10.43
2019-05-10T05:23:58.514Z,10.55
2019-05-10T05:26:29.786Z,10.67
2019-05-10T05:29:01.085Z,10.82
2019-05-10T05:31:32.349Z,10.82
2019-05-10T05:34:04.809Z,10.77
2019-05-10T05:36:37.626Z,10.90
2019-05-10T05:39:09.667Z,10.81
2019-05-10T05:41:49.289Z,10.80
2019-05-10T05:44:13.999Z,10.80
2019-05-10T05:46:45.275Z,10.85
2019-05-10T05:49:16.640Z,10.84
2019-05-10T05:51:48.091Z,10.93
2019-05-10T05:54:20.791Z,11.03
2019-05-10T05:56:53.095Z,10.99
2019-05-10T05:59:26.274Z,11.00
2019-05-10T06:02:00.594Z,11.22
2019-05-10T06:04:31.088Z,11.16
2019-05-10T06:07:02.285Z,11.56
2019-05-10T06:09:37.812Z,11.89
2019-05-10T06:12:07.578Z,12.36
2019-05-10T06:14:43.249Z,12.47
2019-05-10T06:17:13.203Z,12.29
2019-05-10T06:19:44.766Z,12.12
2019-05-10T06:22:16.615Z,12.09
2019-05-10T06:24:52.371Z,12.17
2019-05-10T06:27:21.410Z,12.25
2019-05-10T06:29:52.837Z,12.80
2019-05-10T06:32:24.402Z,13.17
2019-05-10T06:34:55.843Z,12.98
2019-05-10T06:37:30.913Z,12.64
2019-05-10T06:40:01.040Z,12.98
2019-05-10T06:42:34.701Z,13.03
2019-05-10T06:45:14.147Z,13.25
2019-05-10T06:47:41.974Z,13.18
2019-05-10T06:50:13.119Z,12.99
2019-05-10T06:52:44.740Z,13.36
2019-05-10T06:55:16.188Z,13.75
2019-05-10T06:57:50.547Z,14.53
2019-05-10T07:00:21.388Z,14.16
2019-05-10T07:02:53.165Z,13.97
2019-05-10T07:05:24.532Z,13.63
2019-05-10T07:07:59.986Z,13.14
2019-05-10T07:10:33.731Z,13.05
2019-05-10T07:13:03.537Z,13.13
2019-05-10T07:15:42.206Z,13.10
2019-05-10T07:18:08.700Z,12.99
2019-05-10T07:20:43.088Z,13.04
2019-05-10T07:23:13.211Z,13.18
2019-05-10T07:25:46.787Z,13.19
2019-05-10T07:28:17.865Z,13.63
2019-05-10T07:30:49.278Z,14.10
2019-05-10T07:33:20.679Z,14.99
2019-05-10T07:35:52.449Z,15.16
2019-05-10T07:38:31.017Z,15.42
2019-05-10T07:40:57.224Z,14.51
2019-05-10T07:43:29.660Z,14.86
2019-05-10T07:46:06.183Z,14.31
2019-05-10T07:48:35.542Z,13.91
2019-05-10T07:51:07.177Z,13.41
2019-05-10T07:53:38.519Z,14.30
2019-05-10T07:56:09.833Z,14.48
2019-05-10T07:58:43.189Z,14.35
2019-05-10T08:01:14.440Z,14.22
2019-05-10T08:03:51.764Z,14.09
2019-05-10T08:06:19.390Z,14.52
2019-05-10T08:08:55.545Z,15.57
2019-05-10T08:11:24.145Z,17.11
2019-05-10T08:13:59.754Z,16.15
2019-05-10T08:16:29.073Z,15.61
2019-05-10T08:19:02.373Z,14.30
2019-05-10T08:21:35.033Z,13.42
2019-05-10T08:24:13.331Z,13.35
2019-05-10T08:26:42.570Z,13.22
2019-05-10T08:29:16.944Z,13.13
2019-05-10T08:31:52.869Z,13.13
2019-05-10T08:34:22.510Z,13.59
2019-05-10T08:36:53.102Z,13.97
2019-05-10T08:39:24.539Z,14.53
2019-05-10T08:42:03.945Z,16.65
2019-05-10T08:44:29.039Z,16.67
2019-05-10T08:47:02.289Z,16.78
2019-05-10T08:49:43.595Z,16.83
2019-05-10T08:52:07.214Z,16.08
2019-05-10T08:54:38.612Z,15.78
2019-05-10T09:00:03.285Z,15.21
2019-05-10T09:02:32.923Z,14.69
2019-05-10T09:05:04.561Z,14.29
2019-05-10T09:07:38.992Z,14.01
2019-05-10T09:10:12.555Z,13.63
2019-05-10T09:12:51.242Z,13.55
2019-05-10T09:15:16.718Z,13.55
2019-05-10T09:17:49.057Z,13.44
2019-05-10T09:20:25.913Z,13.39
2019-05-10T09:22:53.837Z,13.32
2019-05-10T09:25:29.712Z,13.38
2019-05-10T09:28:02.292Z,13.55
2019-05-10T09:30:36.810Z,13.84
2019-05-10T09:33:10.341Z,14.56
2019-05-10T09:35:47.052Z,14.56
2019-05-10T09:38:15.037Z,14.36
2019-05-10T09:40:53.017Z,13.74
2019-05-10T09:43:23.613Z,13.22
2019-05-10T09:45:53.251Z,13.19
2019-05-10T09:48:24.608Z,13.27
2019-05-10T09:51:00.190Z,13.27
2019-05-10T09:53:30.497Z,13.33
2019-05-10T09:56:03.354Z,13.30
2019-05-10T09:58:35.204Z,13.45
2019-05-10T10:01:14.794Z,13.61
2019-05-10T10:03:43.725Z,14.08
2019-05-10T10:06:13.274Z,14.36
2019-05-10T10:08:50.493Z,14.19
2019-05-10T10:11:18.712Z,13.88
2019-05-10T10:13:59.119Z,14.02
2019-05-10T10:16:23.749Z,14.21
2019-05-10T10:18:55.198Z,14.54
2019-05-10T10:21:35.015Z,14.67
2019-05-10T10:24:00.355Z,15.29
2019-05-10T10:26:32.159Z,14.94
2019-05-10T10:29:03.536Z,14.50
2019-05-10T10:31:48.260Z,14.31
2019-05-10T10:34:08.183Z,14.92
2019-05-10T10:36:43.717Z,14.90
2019-05-10T10:39:14.033Z,15.12
2019-05-10T10:41:45.567Z,14.69
2019-05-10T10:44:18.206Z,14.74
2019-05-10T10:46:49.738Z,14.69
2019-05-10T10:49:23.219Z,14.74
2019-05-10T10:51:54.094Z,14.75
2019-05-10T10:54:28.631Z,14.99
2019-05-10T10:56:59.681Z,15.33
2019-05-10T10:59:30.983Z,15.24
2019-05-10T11:02:30.879Z,15.00
2019-05-10T11:04:40.629Z,15.40
2019-05-10T11:07:10.912Z,15.97
2019-05-10T11:09:41.657Z,16.42
2019-05-10T11:12:14.637Z,16.75
2019-05-10T11:14:46.959Z,16.89
2019-05-10T11:17:18.244Z,16.21
2019-05-10T11:19:49.449Z,16.79
2019-05-10T11:22:21.495Z,16.73
2019-05-10T11:25:01.354Z,16.67
2019-05-10T11:27:26.042Z,16.63
2019-05-10T11:29:57.463Z,16.70
2019-05-10T11:32:31.331Z,16.98
2019-05-10T11:35:05.240Z,17.55
2019-05-10T11:37:36.344Z,17.37
2019-05-10T11:40:11.160Z,16.57
2019-05-10T11:42:47.070Z,17.39
2019-05-10T11:45:17.094Z,17.27
2019-05-10T11:47:54.450Z,17.47
2019-05-10T11:52:55.574Z,17.09
2019-05-10T11:55:27.026Z,16.62
2019-05-10T11:58:03.002Z,15.89
2019-05-10T11:59:05.018Z,17.72
2019-05-10T12:00:34.231Z,15.79
2019-05-10T12:03:11.220Z,16.01
2019-05-10T12:05:37.850Z,15.73
2019-05-10T12:08:12.686Z,15.75
2019-05-10T12:10:52.268Z,16.03
2019-05-10T12:15:51.762Z,15.67
2019-05-10T12:18:26.788Z,15.41
2019-05-10T12:21:08.024Z,15.53
2019-05-10T12:23:31.306Z,15.16
2019-05-10T12:26:18.021Z,16.08
2019-05-10T12:27:12.579Z,14.87
2019-05-10T12:28:35.813Z,14.32
2019-05-10T12:31:15.643Z,13.71
2019-05-10T12:33:45.057Z,13.17
2019-05-10T12:36:23.605Z,12.55
2019-05-10T12:38:47.219Z,12.31
2019-05-10T12:41:23.186Z,11.99
2019-05-10T12:44:02.744Z,12.09
2019-05-10T12:46:25.660Z,12.15
2019-05-10T12:48:57.363Z,12.22
2019-05-10T12:51:31.158Z,12.01
2019-05-10T12:54:01.738Z,12.10
2019-05-10T12:56:34.952Z,12.20
2019-05-10T12:59:06.472Z,12.53
2019-05-10T13:01:37.753Z,12.87
2019-05-10T13:04:14.891Z,13.46
2019-05-10T13:06:42.212Z,14.97
2019-05-10T13:09:13.875Z,15.20
2019-05-10T13:11:45.505Z,15.15
2019-05-10T13:14:16.881Z,15.40
2019-05-10T13:16:48.725Z,15.53
2019-05-10T13:19:21.655Z,16.24
2019-05-10T13:21:53.762Z,17.43
2019-05-10T13:24:26.172Z,16.97
2019-05-10T13:26:57.458Z,17.21
2019-05-10T13:29:28.851Z,17.27
2019-05-10T13:32:00.553Z,16.80
2019-05-10T13:34:32.329Z,16.07
2019-05-10T13:37:05.093Z,16.04
2019-05-10T13:39:36.789Z,15.85
2019-05-10T13:42:09.701Z,15.70
2019-05-10T13:44:43.103Z,15.83
2019-05-10T13:47:14.180Z,15.67
2019-05-10T13:49:48.686Z,15.60
2019-05-10T13:52:18.717Z,15.63
2019-05-10T13:54:50.073Z,15.57
2019-05-10T13:57:21.549Z,15.38
2019-05-10T13:59:55.020Z,15.31
2019-05-10T14:02:32.623Z,15.09
2019-05-10T14:05:00.716Z,14.99
2019-05-10T14:07:32.066Z,15.20
2019-05-10T14:10:03.613Z,15.28
2019-05-10T14:12:35.139Z,15.57
2019-05-10T14:15:12.904Z,15.99
2019-05-10T14:17:41.430Z,16.40
2019-05-10T14:20:19.503Z,17.72
2019-05-10T14:22:48.540Z,17.38
2019-05-10T14:25:19.322Z,16.71
2019-05-10T14:27:50.786Z,16.58
2019-05-10T14:30:22.346Z,16.32
2019-05-10T14:32:53.702Z,17.36
2019-05-10T14:35:25.190Z,16.58
2019-05-10T14:38:07.156Z,15.26
2019-05-10T14:40:30.852Z,14.92
2019-05-10T14:43:02.715Z,14.75
2019-05-10T14:45:34.571Z,14.72
2019-05-10T14:48:06.341Z,14.76
2019-05-10T14:50:39.043Z,14.91
2019-05-10T14:53:10.249Z,14.54
2019-05-10T14:55:41.598Z,14.48
2019-05-10T14:58:13.077Z,14.34
2019-05-10T15:00:44.558Z,14.50
2019-05-10T15:03:16.242Z,14.50
2019-05-10T15:05:48.928Z,14.39
2019-05-10T15:08:21.026Z,14.07
2019-05-10T15:10:52.382Z,14.04
2019-05-10T15:13:25.920Z,14.11
2019-05-10T15:15:56.577Z,13.93
2019-05-10T15:18:28.113Z,13.73
2019-05-10T15:20:59.817Z,13.57
2019-05-10T15:23:31.058Z,13.45
2019-05-10T15:26:10.488Z,13.44
2019-05-10T15:28:40.517Z,13.54
2019-05-10T15:31:09.179Z,13.71
2019-05-10T15:33:41.210Z,13.87
2019-05-10T15:36:12.528Z,13.63
2019-05-10T15:38:49.759Z,13.91
2019-05-10T15:41:22.341Z,14.02
2019-05-10T15:43:53.596Z,14.12
2019-05-10T15:46:29.081Z,14.15
2019-05-10T15:48:57.901Z,14.12
2019-05-10T15:51:36.107Z,14.60
2019-05-10T15:54:04.902Z,14.91
2019-05-10T15:56:40.619Z,14.93
2019-05-10T15:59:12.705Z,14.62
2019-05-10T16:01:45.126Z,14.64
2019-05-10T16:04:15.138Z,14.66
2019-05-10T16:06:46.552Z,14.98
2019-05-10T16:09:19.359Z,15.83
2019-05-10T16:11:55.959Z,16.78
2019-05-10T16:14:24.240Z,17.38
2019-05-10T16:16:55.599Z,16.94
2019-05-10T16:19:27.012Z,16.35
2019-05-10T16:21:58.438Z,15.91
2019-05-10T16:24:30.189Z,15.53
2019-05-10T16:27:01.921Z,15.31
2019-05-10T16:29:39.329Z,15.18
2019-05-10T16:32:06.478Z,15.30
2019-05-10T16:34:37.695Z,15.43
2019-05-10T16:37:10.523Z,16.01
2019-05-10T16:39:41.881Z,16.18
2019-05-10T16:42:13.251Z,16.34
2019-05-10T16:44:44.503Z,16.15
2019-05-10T16:47:16.322Z,15.99
2019-05-10T16:49:53.190Z,15.73
2019-05-10T16:52:25.825Z,15.63
2019-05-10T16:54:58.044Z,15.58
2019-05-10T16:57:31.903Z,15.36
2019-05-10T17:00:02.277Z,15.24
2019-05-10T17:02:40.067Z,15.05
2019-05-10T17:05:09.600Z,14.83
2019-05-10T17:07:42.403Z,14.55
2019-05-10T17:10:15.357Z,14.43
2019-05-10T17:12:46.708Z,14.31
2019-05-10T17:15:18.344Z,14.19
2019-05-10T17:17:50.694Z,14.14
2019-05-10T17:20:22.384Z,14.08
2019-05-10T17:22:53.812Z,14.17
2019-05-10T17:25:25.955Z,14.33
2019-05-10T17:27:59.794Z,14.44
2019-05-10T17:30:30.472Z,14.41
2019-05-10T17:33:04.100Z,14.34
2019-05-10T17:35:36.588Z,14.44
2019-05-10T17:38:13.912Z,14.48
2019-05-10T17:40:42.220Z,14.47
2019-05-10T17:43:20.440Z,14.49
2019-05-10T17:45:47.303Z,14.44
2019-05-10T17:48:19.852Z,14.12
2019-05-10T17:50:51.455Z,14.05
2019-05-10T17:53:23.439Z,13.98
2019-05-10T17:55:56.605Z,13.92
2019-05-10T17:58:33.675Z,13.96
2019-05-10T18:01:02.068Z,13.80
2019-05-10T18:03:33.405Z,13.89
2019-05-10T18:06:05.419Z,13.88
2019-05-10T18:08:36.932Z,13.78
2019-05-10T18:11:08.455Z,13.67
2019-05-10T18:13:40.886Z,13.44
2019-05-10T18:16:13.560Z,13.27
2019-05-10T18:18:47.236Z,12.99
2019-05-10T18:21:21.832Z,12.52
2019-05-10T18:23:52.637Z,12.12
2019-05-10T18:26:24.240Z,12.08
2019-05-10T18:28:55.543Z,12.03
2019-05-10T18:31:26.751Z,11.95
2019-05-10T18:33:58.433Z,11.75
2019-05-10T18:36:50.634Z,11.47
2019-05-10T18:39:09.252Z,11.27
2019-05-10T18:41:46.565Z,11.02
2019-05-10T18:44:16.085Z,10.82
2019-05-10T18:46:47.431Z,10.70
2019-05-10T18:49:19.498Z,10.59
2019-05-10T18:51:50.771Z,10.50
2019-05-10T18:54:21.988Z,10.41
2019-05-10T18:56:53.405Z,10.37
2019-05-10T18:59:25.201Z,10.36
2019-05-10T19:01:57.163Z,10.18
2019-05-10T19:04:28.942Z,9.99
2019-05-10T19:07:09.758Z,9.82
2019-05-10T19:09:34.145Z,9.81
2019-05-10T19:12:05.991Z,9.76
2019-05-10T19:14:38.544Z,9.81
2019-05-10T19:17:11.120Z,9.76
2019-05-10T19:19:43.736Z,9.73
2019-05-10T19:22:14.941Z,9.76
2019-05-10T19:24:47.725Z,9.81
2019-05-10T19:27:18.957Z,9.84
2019-05-10T19:29:50.797Z,9.79
2019-05-10T19:32:22.146Z,9.80
2019-05-10T19:34:57.637Z,9.85
2019-05-10T19:37:33.829Z,9.93
2019-05-10T19:40:01.139Z,10.01
2019-05-10T19:42:37.189Z,10.10
2019-05-10T19:45:12.802Z,10.19
2019-05-10T19:47:42.584Z,10.18
2019-05-10T19:50:14.225Z,10.09
2019-05-10T19:52:45.897Z,10.03
2019-05-10T19:55:19.587Z,10.07
2019-05-10T19:57:54.676Z,10.15
2019-05-10T20:00:25.903Z,10.14
2019-05-10T20:02:57.425Z,10.12
2019-05-10T20:05:28.794Z,10.21
2019-05-10T20:08:00.295Z,10.24
2019-05-10T20:10:32.052Z,10.22
2019-05-10T20:13:03.412Z,10.18
2019-05-10T20:15:34.953Z,9.99
2019-05-10T20:18:07.125Z,9.95
2019-05-10T20:20:38.722Z,9.97
2019-05-10T20:23:10.394Z,9.99
2019-05-10T20:25:41.928Z,9.98
2019-05-10T20:28:13.371Z,10.02
2019-05-10T20:30:44.753Z,10.02
2019-05-10T20:33:16.221Z,10.05
2019-05-10T20:35:47.686Z,10.05
2019-05-10T20:38:19.496Z,10.07
2019-05-10T20:40:51.907Z,10.18
2019-05-10T20:43:23.096Z,10.09
2019-05-10T20:45:54.543Z,10.02
2019-05-10T20:48:25.916Z,10.04
2019-05-10T20:50:57.563Z,9.96
2019-05-10T20:53:28.850Z,9.86
2019-05-10T20:56:00.452Z,9.70
2019-05-10T20:58:32.061Z,9.52
2019-05-10T21:01:03.484Z,9.42
2019-05-10T21:03:34.931Z,9.33
2019-05-10T21:06:06.661Z,9.31
2019-05-10T21:08:38.005Z,9.30
2019-05-10T21:11:09.308Z,9.33
2019-05-10T21:13:40.652Z,9.41
2019-05-10T21:16:13.069Z,9.48
2019-05-10T21:18:44.325Z,9.55
2019-05-10T21:21:15.802Z,9.62
2019-05-10T21:23:47.033Z,9.71
2019-05-10T21:26:18.327Z,9.80
2019-05-10T21:28:50.584Z,10.01
2019-05-10T21:31:22.021Z,10.32
2019-05-10T21:34:08.256Z,10.39
2019-05-10T21:36:26.409Z,10.34
2019-05-10T21:38:57.801Z,10.28
2019-05-10T21:41:29.427Z,10.21
2019-05-10T21:44:01.164Z,10.22
2019-05-10T21:46:32.599Z,10.22
2019-05-10T21:49:04.006Z,10.19
2019-05-10T21:51:35.491Z,10.21
2019-05-10T21:54:07.010Z,10.27
2019-05-10T21:56:38.544Z,10.32
2019-05-10T21:59:10.140Z,10.31
2019-05-10T22:01:41.561Z,10.29
2019-05-10T22:04:13.032Z,10.33
2019-05-10T22:06:44.860Z,10.37
2019-05-10T22:09:16.327Z,10.42
2019-05-10T22:11:47.760Z,10.47
2019-05-10T22:14:19.730Z,10.52
2019-05-10T22:16:54.411Z,10.50
2019-05-10T22:19:25.667Z,10.47
2019-05-10T22:21:57.679Z,10.50
2019-05-10T22:24:29.317Z,10.50
2019-05-10T22:27:00.942Z,10.50
2019-05-10T22:29:32.402Z,10.46
2019-05-10T22:32:03.872Z,10.53
2019-05-10T22:34:35.673Z,10.60
2019-05-10T22:37:07.060Z,10.61
2019-05-10T22:39:38.616Z,10.58
2019-05-10T22:42:10.447Z,10.61
2019-05-10T22:44:41.859Z,10.62
2019-05-10T22:47:13.638Z,10.63
2019-05-10T22:49:46.163Z,10.55
2019-05-10T22:52:17.972Z,10.53
2019-05-10T22:54:49.393Z,10.52
2019-05-10T22:57:20.906Z,10.43
2019-05-10T22:59:52.156Z,10.40
2019-05-10T23:02:23.904Z,10.32
2019-05-10T23:04:55.213Z,10.21
2019-05-10T23:07:26.979Z,10.14
2019-05-10T23:09:58.439Z,10.04
2019-05-10T23:12:29.842Z,9.96
2019-05-10T23:15:01.070Z,9.85
2019-05-10T23:17:34.219Z,9.76
2019-05-10T23:20:05.926Z,9.70
2019-05-10T23:22:37.262Z,9.64
2019-05-10T23:25:08.929Z,9.54
2019-05-10T23:27:40.315Z,9.47
2019-05-10T23:30:12.674Z,9.40
2019-05-10T23:32:44.002Z,9.34
2019-05-10T23:35:15.479Z,9.29
2019-05-10T23:37:46.875Z,9.34
2019-05-10T23:40:18.690Z,9.27
2019-05-10T23:42:50.103Z,9.26
2019-05-10T23:45:21.901Z,9.31
2019-05-10T23:47:53.237Z,9.36
2019-05-10T23:50:24.713Z,9.47
2019-05-10T23:52:56.681Z,9.51
2019-05-10T23:55:28.099Z,9.58
2019-05-10T23:57:59.477Z,9.70
